KOUN/OUN METAR and TAF weather

Enter ICAO airport designator
Station Type Date Time Source
KOUN METAR 2019/04/18 10:15 UTC NOAA

KOUN 181015Z AUTO 36010KT 10SM SCT012 13/12 A2971 RMK AO2 T01350118


Station Type Date Time Source
KOUN Decoded METAR 2019/04/18 10:15 UTC NOAA

Norman / Max Westheimer, OK, United States (KOUN) 35-13N 097-27W 357M
Apr 18, 2019 - 06:15 AM EDT / 2019.04.18 1015 UTC
Wind: from the N (360 degrees) at 12 MPH (10 KT):0
Visibility: 10 mile(s):0
Sky conditions: partly cloudy
Temperature: 56.3 F (13.5 C)
Dew Point: 53.2 F (11.8 C)
Relative Humidity: 89%
Pressure (altimeter): 29.71 in. Hg (1006 hPa)
ob: KOUN 181015Z AUTO 36010KT 10SM SCT012 13/12 A2971 RMK AO2 T01350118
cycle: 10

Station Type Date Time Source
KOUN TAF 2019/04/18 06:27 UTC NOAA

TAF KOUN 180525Z 1806/1906 36018G28KT P6SM OVC050
FM181200 35022G30KT P6SM BKN050
FM190000 34012KT P6SM BKN250

Example: see airport list